sensor_id;sensor_type;location;lat;lon;timestamp;temperature;humidity
65046;DHT22;54657;52.022;5.534;2023-04-03T00:01:29;5.90;69.00
65046;DHT22;54657;52.022;5.534;2023-04-03T00:03:56;5.80;69.10
65046;DHT22;54657;52.022;5.534;2023-04-03T00:06:22;5.80;69.00
65046;DHT22;54657;52.022;5.534;2023-04-03T00:08:48;5.80;69.00
65046;DHT22;54657;52.022;5.534;2023-04-03T00:11:17;5.70;69.10
65046;DHT22;54657;52.022;5.534;2023-04-03T00:13:43;5.70;69.10
65046;DHT22;54657;52.022;5.534;2023-04-03T00:16:11;5.70;69.10
65046;DHT22;54657;52.022;5.534;2023-04-03T00:18:37;5.60;69.10
65046;DHT22;54657;52.022;5.534;2023-04-03T00:21:06;5.60;69.20
65046;DHT22;54657;52.022;5.534;2023-04-03T00:23:33;5.60;69.30
65046;DHT22;54657;52.022;5.534;2023-04-03T00:25:59;5.60;69.20
65046;DHT22;54657;52.022;5.534;2023-04-03T00:28:25;5.50;69.20
65046;DHT22;54657;52.022;5.534;2023-04-03T00:30:52;5.50;69.40
65046;DHT22;54657;52.022;5.534;2023-04-03T00:33:18;5.50;69.40
65046;DHT22;54657;52.022;5.534;2023-04-03T00:35:47;5.50;69.40
65046;DHT22;54657;52.022;5.534;2023-04-03T00:38:13;5.50;70.00
65046;DHT22;54657;52.022;5.534;2023-04-03T00:40:42;5.40;69.50
65046;DHT22;54657;52.022;5.534;2023-04-03T00:43:18;5.40;70.10
65046;DHT22;54657;52.022;5.534;2023-04-03T00:45:56;5.40;69.40
65046;DHT22;54657;52.022;5.534;2023-04-03T00:50:51;5.30;69.50
65046;DHT22;54657;52.022;5.534;2023-04-03T00:53:21;5.30;69.50
65046;DHT22;54657;52.022;5.534;2023-04-03T00:55:49;5.20;69.60
65046;DHT22;54657;52.022;5.534;2023-04-03T00:58:18;5.20;69.60
65046;DHT22;54657;52.022;5.534;2023-04-03T01:00:48;5.20;69.80
65046;DHT22;54657;52.022;5.534;2023-04-03T01:03:14;5.20;69.70
65046;DHT22;54657;52.022;5.534;2023-04-03T01:05:40;5.10;69.80
65046;DHT22;54657;52.022;5.534;2023-04-03T01:08:06;5.10;69.80
65046;DHT22;54657;52.022;5.534;2023-04-03T01:10:32;5.10;69.80
65046;DHT22;54657;52.022;5.534;2023-04-03T01:12:59;5.10;69.80
65046;DHT22;54657;52.022;5.534;2023-04-03T01:15:26;5.20;69.90
65046;DHT22;54657;52.022;5.534;2023-04-03T01:17:56;5.20;69.90
65046;DHT22;54657;52.022;5.534;2023-04-03T01:25:34;5.10;69.80
65046;DHT22;54657;52.022;5.534;2023-04-03T01:28:02;5.10;69.90
65046;DHT22;54657;52.022;5.534;2023-04-03T01:30:35;5.10;70.00
65046;DHT22;54657;52.022;5.534;2023-04-03T01:33:02;5.10;70.10
65046;DHT22;54657;52.022;5.534;2023-04-03T01:35:28;5.20;70.10
65046;DHT22;54657;52.022;5.534;2023-04-03T01:37:54;5.20;70.00
65046;DHT22;54657;52.022;5.534;2023-04-03T01:40:20;5.20;70.00
65046;DHT22;54657;52.022;5.534;2023-04-03T01:42:45;5.30;70.00
65046;DHT22;54657;52.022;5.534;2023-04-03T01:45:14;5.30;70.00
65046;DHT22;54657;52.022;5.534;2023-04-03T01:47:40;5.30;70.10
65046;DHT22;54657;52.022;5.534;2023-04-03T01:50:06;5.40;70.00
65046;DHT22;54657;52.022;5.534;2023-04-03T01:52:32;5.40;70.00
65046;DHT22;54657;52.022;5.534;2023-04-03T01:54:58;5.40;70.00
65046;DHT22;54657;52.022;5.534;2023-04-03T01:57:23;5.40;70.00
65046;DHT22;54657;52.022;5.534;2023-04-03T01:59:49;5.50;70.00
65046;DHT22;54657;52.022;5.534;2023-04-03T02:02:14;5.50;69.90
65046;DHT22;54657;52.022;5.534;2023-04-03T02:04:43;5.60;70.00
65046;DHT22;54657;52.022;5.534;2023-04-03T02:07:09;5.60;70.00
65046;DHT22;54657;52.022;5.534;2023-04-03T02:09:35;5.60;70.20
65046;DHT22;54657;52.022;5.534;2023-04-03T02:12:00;5.60;70.10
65046;DHT22;54657;52.022;5.534;2023-04-03T02:14:26;5.60;70.10
65046;DHT22;54657;52.022;5.534;2023-04-03T02:16:52;5.70;70.20
65046;DHT22;54657;52.022;5.534;2023-04-03T02:19:18;5.70;70.20
65046;DHT22;54657;52.022;5.534;2023-04-03T02:21:44;5.70;70.20
65046;DHT22;54657;52.022;5.534;2023-04-03T02:24:10;5.70;70.20
65046;DHT22;54657;52.022;5.534;2023-04-03T02:26:35;5.70;70.20
65046;DHT22;54657;52.022;5.534;2023-04-03T02:29:02;5.70;70.30
65046;DHT22;54657;52.022;5.534;2023-04-03T02:31:28;5.60;70.50
65046;DHT22;54657;52.022;5.534;2023-04-03T02:33:54;5.70;70.30
65046;DHT22;54657;52.022;5.534;2023-04-03T02:36:19;5.70;70.40
65046;DHT22;54657;52.022;5.534;2023-04-03T02:38:45;5.70;70.50
65046;DHT22;54657;52.022;5.534;2023-04-03T02:41:13;5.70;70.60
65046;DHT22;54657;52.022;5.534;2023-04-03T02:43:39;5.60;70.70
65046;DHT22;54657;52.022;5.534;2023-04-03T02:46:05;5.60;71.30
65046;DHT22;54657;52.022;5.534;2023-04-03T02:48:31;5.50;70.90
65046;DHT22;54657;52.022;5.534;2023-04-03T02:50:56;5.50;70.90
65046;DHT22;54657;52.022;5.534;2023-04-03T02:53:22;5.50;71.00
65046;DHT22;54657;52.022;5.534;2023-04-03T02:55:48;5.50;71.00
65046;DHT22;54657;52.022;5.534;2023-04-03T02:58:14;5.50;71.70
65046;DHT22;54657;52.022;5.534;2023-04-03T03:00:40;5.40;71.20
65046;DHT22;54657;52.022;5.534;2023-04-03T03:03:05;5.40;71.30
65046;DHT22;54657;52.022;5.534;2023-04-03T03:05:31;5.40;71.30
65046;DHT22;54657;52.022;5.534;2023-04-03T03:07:57;5.40;71.30
65046;DHT22;54657;52.022;5.534;2023-04-03T03:10:23;5.40;72.00
65046;DHT22;54657;52.022;5.534;2023-04-03T03:12:49;5.40;71.50
65046;DHT22;54657;52.022;5.534;2023-04-03T03:15:15;5.40;71.50
65046;DHT22;54657;52.022;5.534;2023-04-03T03:17:42;5.50;71.40
65046;DHT22;54657;52.022;5.534;2023-04-03T03:20:08;5.50;71.40
65046;DHT22;54657;52.022;5.534;2023-04-03T03:22:35;5.50;71.40
65046;DHT22;54657;52.022;5.534;2023-04-03T03:25:00;5.50;71.50
65046;DHT22;54657;52.022;5.534;2023-04-03T03:27:29;5.50;71.30
65046;DHT22;54657;52.022;5.534;2023-04-03T03:29:54;5.50;71.40
65046;DHT22;54657;52.022;5.534;2023-04-03T03:32:20;5.50;71.30
65046;DHT22;54657;52.022;5.534;2023-04-03T03:34:46;5.50;71.50
65046;DHT22;54657;52.022;5.534;2023-04-03T03:37:12;5.50;71.70
65046;DHT22;54657;52.022;5.534;2023-04-03T03:39:37;5.40;71.70
65046;DHT22;54657;52.022;5.534;2023-04-03T03:42:03;5.40;72.10
65046;DHT22;54657;52.022;5.534;2023-04-03T03:44:29;5.30;72.20
65046;DHT22;54657;52.022;5.534;2023-04-03T03:46:55;5.30;72.20
65046;DHT22;54657;52.022;5.534;2023-04-03T03:49:21;5.30;72.30
65046;DHT22;54657;52.022;5.534;2023-04-03T03:51:47;5.30;72.30
65046;DHT22;54657;52.022;5.534;2023-04-03T03:54:13;5.20;72.20
65046;DHT22;54657;52.022;5.534;2023-04-03T03:56:39;5.10;72.40
65046;DHT22;54657;52.022;5.534;2023-04-03T03:59:05;5.10;72.50
65046;DHT22;54657;52.022;5.534;2023-04-03T04:01:31;5.10;72.60
65046;DHT22;54657;52.022;5.534;2023-04-03T04:03:56;5.10;72.40
65046;DHT22;54657;52.022;5.534;2023-04-03T04:06:22;5.10;72.60
65046;DHT22;54657;52.022;5.534;2023-04-03T04:08:48;5.10;72.40
65046;DHT22;54657;52.022;5.534;2023-04-03T04:11:13;5.10;72.60
65046;DHT22;54657;52.022;5.534;2023-04-03T04:13:39;5.10;72.40
65046;DHT22;54657;52.022;5.534;2023-04-03T04:16:06;5.10;72.50
65046;DHT22;54657;52.022;5.534;2023-04-03T04:18:32;5.10;72.40
65046;DHT22;54657;52.022;5.534;2023-04-03T04:20:57;5.10;72.50
65046;DHT22;54657;52.022;5.534;2023-04-03T04:23:23;5.00;72.70
65046;DHT22;54657;52.022;5.534;2023-04-03T04:25:49;5.00;72.90
65046;DHT22;54657;52.022;5.534;2023-04-03T04:28:15;5.00;72.80
65046;DHT22;54657;52.022;5.534;2023-04-03T04:30:41;4.90;72.90
65046;DHT22;54657;52.022;5.534;2023-04-03T04:33:09;4.90;72.80
65046;DHT22;54657;52.022;5.534;2023-04-03T04:35:35;4.90;73.10
65046;DHT22;54657;52.022;5.534;2023-04-03T04:38:01;4.90;72.90
65046;DHT22;54657;52.022;5.534;2023-04-03T04:40:27;4.80;73.10
65046;DHT22;54657;52.022;5.534;2023-04-03T04:42:53;4.80;73.10
65046;DHT22;54657;52.022;5.534;2023-04-03T04:45:19;4.70;73.30
65046;DHT22;54657;52.022;5.534;2023-04-03T04:47:44;4.70;73.50
65046;DHT22;54657;52.022;5.534;2023-04-03T04:50:10;4.60;73.50
65046;DHT22;54657;52.022;5.534;2023-04-03T04:52:37;4.60;73.60
65046;DHT22;54657;52.022;5.534;2023-04-03T04:55:03;4.50;74.30
65046;DHT22;54657;52.022;5.534;2023-04-03T04:57:29;4.50;74.00
65046;DHT22;54657;52.022;5.534;2023-04-03T04:59:55;4.40;74.20
65046;DHT22;54657;52.022;5.534;2023-04-03T05:02:20;4.30;74.00
65046;DHT22;54657;52.022;5.534;2023-04-03T05:04:46;4.20;74.70
65046;DHT22;54657;52.022;5.534;2023-04-03T05:07:12;4.30;74.20
65046;DHT22;54657;52.022;5.534;2023-04-03T05:09:37;4.20;74.10
65046;DHT22;54657;52.022;5.534;2023-04-03T05:12:03;4.20;74.80
65046;DHT22;54657;52.022;5.534;2023-04-03T05:14:29;4.20;74.20
65046;DHT22;54657;52.022;5.534;2023-04-03T05:16:55;4.20;74.00
65046;DHT22;54657;52.022;5.534;2023-04-03T05:19:21;4.20;74.10
65046;DHT22;54657;52.022;5.534;2023-04-03T05:21:47;4.10;74.40
65046;DHT22;54657;52.022;5.534;2023-04-03T05:24:13;4.10;74.00
65046;DHT22;54657;52.022;5.534;2023-04-03T05:26:40;4.10;74.00
65046;DHT22;54657;52.022;5.534;2023-04-03T05:29:05;4.10;74.30
65046;DHT22;54657;52.022;5.534;2023-04-03T05:31:31;4.10;74.50
65046;DHT22;54657;52.022;5.534;2023-04-03T05:33:57;4.10;74.00
65046;DHT22;54657;52.022;5.534;2023-04-03T05:36:23;4.10;74.10
65046;DHT22;54657;52.022;5.534;2023-04-03T05:38:49;4.10;73.70
65046;DHT22;54657;52.022;5.534;2023-04-03T05:41:15;4.10;73.80
65046;DHT22;54657;52.022;5.534;2023-04-03T05:43:41;4.20;73.90
65046;DHT22;54657;52.022;5.534;2023-04-03T05:46:15;4.20;73.80
65046;DHT22;54657;52.022;5.534;2023-04-03T05:48:42;4.20;73.90
65046;DHT22;54657;52.022;5.534;2023-04-03T05:51:17;4.20;73.50
65046;DHT22;54657;52.022;5.534;2023-04-03T05:53:43;4.30;73.80
65046;DHT22;54657;52.022;5.534;2023-04-03T05:56:10;4.30;73.70
65046;DHT22;54657;52.022;5.534;2023-04-03T05:58:35;4.40;73.40
65046;DHT22;54657;52.022;5.534;2023-04-03T06:01:01;4.40;73.40
65046;DHT22;54657;52.022;5.534;2023-04-03T06:03:26;4.50;73.20
65046;DHT22;54657;52.022;5.534;2023-04-03T06:05:52;4.50;73.50
65046;DHT22;54657;52.022;5.534;2023-04-03T06:08:18;4.50;73.30
65046;DHT22;54657;52.022;5.534;2023-04-03T06:10:44;4.40;73.10
65046;DHT22;54657;52.022;5.534;2023-04-03T06:13:10;4.50;73.40
65046;DHT22;54657;52.022;5.534;2023-04-03T06:15:36;4.50;73.10
65046;DHT22;54657;52.022;5.534;2023-04-03T06:18:02;4.50;73.00
65046;DHT22;54657;52.022;5.534;2023-04-03T06:20:27;4.50;73.50
65046;DHT22;54657;52.022;5.534;2023-04-03T06:22:53;4.50;73.10
65046;DHT22;54657;52.022;5.534;2023-04-03T06:25:18;4.50;72.80
65046;DHT22;54657;52.022;5.534;2023-04-03T06:27:45;4.60;73.30
65046;DHT22;54657;52.022;5.534;2023-04-03T06:30:11;4.60;72.70
65046;DHT22;54657;52.022;5.534;2023-04-03T06:32:39;4.70;72.50
65046;DHT22;54657;52.022;5.534;2023-04-03T06:35:06;4.70;72.60
65046;DHT22;54657;52.022;5.534;2023-04-03T06:37:31;4.80;72.40
65046;DHT22;54657;52.022;5.534;2023-04-03T06:39:58;4.70;72.40
65046;DHT22;54657;52.022;5.534;2023-04-03T06:42:24;4.80;72.40
65046;DHT22;54657;52.022;5.534;2023-04-03T06:44:50;4.90;72.10
65046;DHT22;54657;52.022;5.534;2023-04-03T06:47:16;4.90;71.90
65046;DHT22;54657;52.022;5.534;2023-04-03T06:49:42;5.00;71.90
65046;DHT22;54657;52.022;5.534;2023-04-03T06:52:09;5.10;71.80
65046;DHT22;54657;52.022;5.534;2023-04-03T06:54:35;5.10;71.70
65046;DHT22;54657;52.022;5.534;2023-04-03T06:57:01;5.10;71.50
65046;DHT22;54657;52.022;5.534;2023-04-03T06:59:27;5.10;71.60
65046;DHT22;54657;52.022;5.534;2023-04-03T07:01:53;5.10;71.40
65046;DHT22;54657;52.022;5.534;2023-04-03T07:04:19;5.20;71.50
65046;DHT22;54657;52.022;5.534;2023-04-03T07:06:46;5.20;71.50
65046;DHT22;54657;52.022;5.534;2023-04-03T07:09:13;5.20;71.60
65046;DHT22;54657;52.022;5.534;2023-04-03T07:11:38;5.20;71.30
65046;DHT22;54657;52.022;5.534;2023-04-03T07:14:05;5.30;71.50
65046;DHT22;54657;52.022;5.534;2023-04-03T07:16:33;5.30;71.30
65046;DHT22;54657;52.022;5.534;2023-04-03T07:18:59;5.50;71.30
65046;DHT22;54657;52.022;5.534;2023-04-03T07:21:24;5.60;71.10
65046;DHT22;54657;52.022;5.534;2023-04-03T07:23:50;5.70;70.80
65046;DHT22;54657;52.022;5.534;2023-04-03T07:26:16;5.70;70.80
65046;DHT22;54657;52.022;5.534;2023-04-03T07:28:41;5.90;70.60
65046;DHT22;54657;52.022;5.534;2023-04-03T07:31:11;5.80;70.00
65046;DHT22;54657;52.022;5.534;2023-04-03T07:33:39;5.90;70.10
65046;DHT22;54657;52.022;5.534;2023-04-03T07:36:06;5.90;70.60
65046;DHT22;54657;52.022;5.534;2023-04-03T07:38:35;6.00;69.80
65046;DHT22;54657;52.022;5.534;2023-04-03T07:41:02;6.10;69.80
65046;DHT22;54657;52.022;5.534;2023-04-03T07:43:28;6.10;69.00
65046;DHT22;54657;52.022;5.534;2023-04-03T07:45:53;6.20;69.10
65046;DHT22;54657;52.022;5.534;2023-04-03T07:48:24;6.30;69.00
65046;DHT22;54657;52.022;5.534;2023-04-03T07:50:50;6.40;68.50
65046;DHT22;54657;52.022;5.534;2023-04-03T07:53:17;6.40;68.00
65046;DHT22;54657;52.022;5.534;2023-04-03T07:55:43;6.40;68.30
65046;DHT22;54657;52.022;5.534;2023-04-03T07:58:14;6.50;68.10
65046;DHT22;54657;52.022;5.534;2023-04-03T08:00:40;6.50;67.40
65046;DHT22;54657;52.022;5.534;2023-04-03T08:03:07;6.50;67.40
65046;DHT22;54657;52.022;5.534;2023-04-03T08:05:39;6.60;67.00
65046;DHT22;54657;52.022;5.534;2023-04-03T08:08:06;6.60;67.30
65046;DHT22;54657;52.022;5.534;2023-04-03T08:10:32;6.60;66.30
65046;DHT22;54657;52.022;5.534;2023-04-03T08:12:58;6.60;66.40
65046;DHT22;54657;52.022;5.534;2023-04-03T08:15:24;6.60;66.80
65046;DHT22;54657;52.022;5.534;2023-04-03T08:17:50;6.70;66.40
65046;DHT22;54657;52.022;5.534;2023-04-03T08:20:16;6.70;66.30
65046;DHT22;54657;52.022;5.534;2023-04-03T08:22:41;6.70;65.40
65046;DHT22;54657;52.022;5.534;2023-04-03T08:25:07;6.80;65.10
65046;DHT22;54657;52.022;5.534;2023-04-03T08:27:33;6.80;64.80
65046;DHT22;54657;52.022;5.534;2023-04-03T08:29:59;6.80;65.50
65046;DHT22;54657;52.022;5.534;2023-04-03T08:32:25;6.90;64.10
65046;DHT22;54657;52.022;5.534;2023-04-03T08:34:51;7.00;65.00
65046;DHT22;54657;52.022;5.534;2023-04-03T08:37:16;7.00;62.40
65046;DHT22;54657;52.022;5.534;2023-04-03T08:39:42;7.00;62.80
65046;DHT22;54657;52.022;5.534;2023-04-03T08:43:09;7.10;63.00
65046;DHT22;54657;52.022;5.534;2023-04-03T08:48:11;7.30;61.70
65046;DHT22;54657;52.022;5.534;2023-04-03T08:50:43;7.40;62.80
65046;DHT22;54657;52.022;5.534;2023-04-03T08:53:19;7.50;61.90
65046;DHT22;54657;52.022;5.534;2023-04-03T08:55:50;7.50;59.30
65046;DHT22;54657;52.022;5.534;2023-04-03T08:58:25;7.50;60.70
65046;DHT22;54657;52.022;5.534;2023-04-03T09:01:04;7.50;57.80
65046;DHT22;54657;52.022;5.534;2023-04-03T09:03:38;7.60;60.40
65046;DHT22;54657;52.022;5.534;2023-04-03T09:06:13;7.70;60.80
65046;DHT22;54657;52.022;5.534;2023-04-03T09:08:50;7.70;59.00
65046;DHT22;54657;52.022;5.534;2023-04-03T09:22:18;7.90;55.90
65046;DHT22;54657;52.022;5.534;2023-04-03T09:24:44;8.00;55.80
65046;DHT22;54657;52.022;5.534;2023-04-03T09:27:13;8.10;55.50
65046;DHT22;54657;52.022;5.534;2023-04-03T09:29:41;8.10;55.60
65046;DHT22;54657;52.022;5.534;2023-04-03T09:32:29;8.10;56.30
65046;DHT22;54657;52.022;5.534;2023-04-03T09:35:02;8.20;55.60
65046;DHT22;54657;52.022;5.534;2023-04-03T09:40:01;8.30;50.80
65046;DHT22;54657;52.022;5.534;2023-04-03T09:42:27;8.30;48.00
65046;DHT22;54657;52.022;5.534;2023-04-03T09:45:00;8.40;54.50
65046;DHT22;54657;52.022;5.534;2023-04-03T09:47:36;8.50;54.00
65046;DHT22;54657;52.022;5.534;2023-04-03T09:52:45;8.60;46.60
65046;DHT22;54657;52.022;5.534;2023-04-03T09:57:45;8.60;47.90
65046;DHT22;54657;52.022;5.534;2023-04-03T10:02:56;8.70;49.30
65046;DHT22;54657;52.022;5.534;2023-04-03T10:05:30;8.80;50.00
65046;DHT22;54657;52.022;5.534;2023-04-03T10:10:48;9.00;46.00
65046;DHT22;54657;52.022;5.534;2023-04-03T10:13:30;9.00;48.70
65046;DHT22;54657;52.022;5.534;2023-04-03T10:16:01;9.00;50.20
65046;DHT22;54657;52.022;5.534;2023-04-03T10:18:41;8.90;46.40
65046;DHT22;54657;52.022;5.534;2023-04-03T10:21:29;8.90;48.50
65046;DHT22;54657;52.022;5.534;2023-04-03T10:24:10;9.00;48.90
65046;DHT22;54657;52.022;5.534;2023-04-03T10:34:43;9.20;49.00
65046;DHT22;54657;52.022;5.534;2023-04-03T10:37:29;9.40;50.40
65046;DHT22;54657;52.022;5.534;2023-04-03T10:40:30;9.50;46.30
65046;DHT22;54657;52.022;5.534;2023-04-03T10:43:08;9.60;46.30
65046;DHT22;54657;52.022;5.534;2023-04-03T10:45:53;9.60;49.30
65046;DHT22;54657;52.022;5.534;2023-04-03T10:51:19;9.50;46.10
65046;DHT22;54657;52.022;5.534;2023-04-03T10:56:35;9.70;47.10
65046;DHT22;54657;52.022;5.534;2023-04-03T10:59:57;9.70;50.30
65046;DHT22;54657;52.022;5.534;2023-04-03T11:04:59;9.80;51.20
65046;DHT22;54657;52.022;5.534;2023-04-03T11:07:33;9.90;51.10
65046;DHT22;54657;52.022;5.534;2023-04-03T11:10:10;9.80;48.70
65046;DHT22;54657;52.022;5.534;2023-04-03T11:15:23;9.80;49.50
65046;DHT22;54657;52.022;5.534;2023-04-03T11:18:13;9.80;51.00
65046;DHT22;54657;52.022;5.534;2023-04-03T11:20:47;9.90;45.90
65046;DHT22;54657;52.022;5.534;2023-04-03T11:23:24;9.90;50.30
65046;DHT22;54657;52.022;5.534;2023-04-03T11:25:53;10.00;50.80
65046;DHT22;54657;52.022;5.534;2023-04-03T11:28:21;10.00;51.30
65046;DHT22;54657;52.022;5.534;2023-04-03T11:31:01;10.00;50.90
65046;DHT22;54657;52.022;5.534;2023-04-03T11:33:44;10.10;48.20
65046;DHT22;54657;52.022;5.534;2023-04-03T11:36:25;10.20;50.00
65046;DHT22;54657;52.022;5.534;2023-04-03T11:38:58;10.30;50.50
65046;DHT22;54657;52.022;5.534;2023-04-03T11:41:29;10.20;49.10
65046;DHT22;54657;52.022;5.534;2023-04-03T11:43:59;10.20;49.30
65046;DHT22;54657;52.022;5.534;2023-04-03T11:46:57;10.10;49.00
65046;DHT22;54657;52.022;5.534;2023-04-03T11:50:43;10.00;43.60
65046;DHT22;54657;52.022;5.534;2023-04-03T11:58:03;10.10;44.70
65046;DHT22;54657;52.022;5.534;2023-04-03T12:21:24;10.60;49.60
65046;DHT22;54657;52.022;5.534;2023-04-03T12:37:06;10.50;48.50
65046;DHT22;54657;52.022;5.534;2023-04-03T12:42:42;10.60;48.60
65046;DHT22;54657;52.022;5.534;2023-04-03T12:45:19;10.60;49.40
65046;DHT22;54657;52.022;5.534;2023-04-03T12:47:45;10.70;47.80
65046;DHT22;54657;52.022;5.534;2023-04-03T12:50:30;10.70;48.50
65046;DHT22;54657;52.022;5.534;2023-04-03T12:53:03;10.60;47.70
65046;DHT22;54657;52.022;5.534;2023-04-03T12:55:29;10.70;48.90
65046;DHT22;54657;52.022;5.534;2023-04-03T12:57:54;10.80;47.90
65046;DHT22;54657;52.022;5.534;2023-04-03T13:02:52;10.80;47.70
65046;DHT22;54657;52.022;5.534;2023-04-03T13:05:19;10.70;47.10
65046;DHT22;54657;52.022;5.534;2023-04-03T13:08:04;10.80;48.30
65046;DHT22;54657;52.022;5.534;2023-04-03T13:10:31;10.80;44.30
65046;DHT22;54657;52.022;5.534;2023-04-03T13:13:07;10.70;48.10
65046;DHT22;54657;52.022;5.534;2023-04-03T13:15:45;10.70;49.20
65046;DHT22;54657;52.022;5.534;2023-04-03T13:18:31;10.80;47.60
65046;DHT22;54657;52.022;5.534;2023-04-03T13:21:12;10.90;48.30
65046;DHT22;54657;52.022;5.534;2023-04-03T13:23:41;10.90;47.80
65046;DHT22;54657;52.022;5.534;2023-04-03T13:26:08;10.90;48.10
65046;DHT22;54657;52.022;5.534;2023-04-03T13:28:34;11.00;48.50
65046;DHT22;54657;52.022;5.534;2023-04-03T13:31:05;10.90;48.10
65046;DHT22;54657;52.022;5.534;2023-04-03T13:33:36;10.80;47.90
65046;DHT22;54657;52.022;5.534;2023-04-03T13:38:31;10.80;44.00
65046;DHT22;54657;52.022;5.534;2023-04-03T13:41:01;10.80;46.80
65046;DHT22;54657;52.022;5.534;2023-04-03T13:43:31;10.90;48.30
65046;DHT22;54657;52.022;5.534;2023-04-03T13:48:51;11.00;45.90
65046;DHT22;54657;52.022;5.534;2023-04-03T13:51:19;11.00;45.00
65046;DHT22;54657;52.022;5.534;2023-04-03T13:53:48;10.90;47.90
65046;DHT22;54657;52.022;5.534;2023-04-03T14:01:44;11.00;48.50
65046;DHT22;54657;52.022;5.534;2023-04-03T14:04:20;11.10;45.90
65046;DHT22;54657;52.022;5.534;2023-04-03T14:06:47;11.10;45.90
65046;DHT22;54657;52.022;5.534;2023-04-03T14:09:15;11.20;48.50
65046;DHT22;54657;52.022;5.534;2023-04-03T14:11:42;11.10;47.80
65046;DHT22;54657;52.022;5.534;2023-04-03T14:14:23;11.10;46.30
65046;DHT22;54657;52.022;5.534;2023-04-03T14:16:54;11.10;45.90
65046;DHT22;54657;52.022;5.534;2023-04-03T14:19:34;11.00;46.00
65046;DHT22;54657;52.022;5.534;2023-04-03T14:22:05;10.80;46.40
65046;DHT22;54657;52.022;5.534;2023-04-03T14:24:31;10.80;47.40
65046;DHT22;54657;52.022;5.534;2023-04-03T14:26:57;10.90;48.60
65046;DHT22;54657;52.022;5.534;2023-04-03T14:29:24;10.90;47.70
65046;DHT22;54657;52.022;5.534;2023-04-03T14:31:50;10.90;47.30
65046;DHT22;54657;52.022;5.534;2023-04-03T14:34:16;10.90;47.40
65046;DHT22;54657;52.022;5.534;2023-04-03T14:36:43;10.90;47.40
65046;DHT22;54657;52.022;5.534;2023-04-03T14:39:18;11.00;47.50
65046;DHT22;54657;52.022;5.534;2023-04-03T14:41:45;11.00;46.50
65046;DHT22;54657;52.022;5.534;2023-04-03T14:44:11;10.90;48.10
65046;DHT22;54657;52.022;5.534;2023-04-03T14:46:39;10.90;48.00
65046;DHT22;54657;52.022;5.534;2023-04-03T14:49:17;10.90;47.00
65046;DHT22;54657;52.022;5.534;2023-04-03T14:51:43;10.80;45.50
65046;DHT22;54657;52.022;5.534;2023-04-03T14:54:16;10.90;48.40
65046;DHT22;54657;52.022;5.534;2023-04-03T14:56:42;10.90;46.80
65046;DHT22;54657;52.022;5.534;2023-04-03T14:59:14;10.90;48.20
65046;DHT22;54657;52.022;5.534;2023-04-03T15:01:40;11.00;48.90
65046;DHT22;54657;52.022;5.534;2023-04-03T15:04:18;11.00;47.30
65046;DHT22;54657;52.022;5.534;2023-04-03T15:06:44;11.00;47.30
65046;DHT22;54657;52.022;5.534;2023-04-03T15:09:19;11.00;47.90
65046;DHT22;54657;52.022;5.534;2023-04-03T15:11:46;11.00;47.20
65046;DHT22;54657;52.022;5.534;2023-04-03T15:14:11;10.90;48.30
65046;DHT22;54657;52.022;5.534;2023-04-03T15:16:37;10.90;48.60
65046;DHT22;54657;52.022;5.534;2023-04-03T15:19:05;10.90;48.60
65046;DHT22;54657;52.022;5.534;2023-04-03T15:21:31;10.80;46.70
65046;DHT22;54657;52.022;5.534;2023-04-03T15:23:57;10.70;48.10
65046;DHT22;54657;52.022;5.534;2023-04-03T15:26:22;10.70;47.70
65046;DHT22;54657;52.022;5.534;2023-04-03T15:28:48;10.70;47.70
65046;DHT22;54657;52.022;5.534;2023-04-03T15:31:14;10.70;47.30
65046;DHT22;54657;52.022;5.534;2023-04-03T15:33:39;10.80;48.30
65046;DHT22;54657;52.022;5.534;2023-04-03T15:36:16;10.90;48.10
65046;DHT22;54657;52.022;5.534;2023-04-03T15:38:41;10.80;47.50
65046;DHT22;54657;52.022;5.534;2023-04-03T15:48:01;10.60;46.80
65046;DHT22;54657;52.022;5.534;2023-04-03T15:50:46;10.60;48.80
65046;DHT22;54657;52.022;5.534;2023-04-03T15:53:19;10.60;47.80
65046;DHT22;54657;52.022;5.534;2023-04-03T15:55:44;10.50;48.30
65046;DHT22;54657;52.022;5.534;2023-04-03T15:58:10;10.60;48.40
65046;DHT22;54657;52.022;5.534;2023-04-03T16:04:35;10.60;48.40
65046;DHT22;54657;52.022;5.534;2023-04-03T16:13:47;10.60;48.70
65046;DHT22;54657;52.022;5.534;2023-04-03T16:16:12;10.50;49.50
65046;DHT22;54657;52.022;5.534;2023-04-03T16:18:38;10.50;48.80
65046;DHT22;54657;52.022;5.534;2023-04-03T16:21:06;10.40;48.70
65046;DHT22;54657;52.022;5.534;2023-04-03T16:23:32;10.40;48.40
65046;DHT22;54657;52.022;5.534;2023-04-03T16:25:57;10.30;49.00
65046;DHT22;54657;52.022;5.534;2023-04-03T16:28:23;10.30;49.30
65046;DHT22;54657;52.022;5.534;2023-04-03T16:30:48;10.20;48.40
65046;DHT22;54657;52.022;5.534;2023-04-03T16:33:14;10.20;48.80
65046;DHT22;54657;52.022;5.534;2023-04-03T16:35:40;10.10;48.20
65046;DHT22;54657;52.022;5.534;2023-04-03T16:38:09;10.20;48.70
65046;DHT22;54657;52.022;5.534;2023-04-03T16:40:35;10.10;48.50
65046;DHT22;54657;52.022;5.534;2023-04-03T16:43:03;10.10;49.30
65046;DHT22;54657;52.022;5.534;2023-04-03T16:45:29;10.10;49.10
65046;DHT22;54657;52.022;5.534;2023-04-03T16:47:54;10.10;48.80
65046;DHT22;54657;52.022;5.534;2023-04-03T16:50:20;10.10;49.70
65046;DHT22;54657;52.022;5.534;2023-04-03T16:52:46;10.10;49.00
65046;DHT22;54657;52.022;5.534;2023-04-03T16:55:12;10.20;49.20
65046;DHT22;54657;52.022;5.534;2023-04-03T16:57:37;10.10;49.20
65046;DHT22;54657;52.022;5.534;2023-04-03T17:00:04;10.00;48.90
65046;DHT22;54657;52.022;5.534;2023-04-03T17:02:30;9.90;48.80
65046;DHT22;54657;52.022;5.534;2023-04-03T17:04:56;9.80;48.80
65046;DHT22;54657;52.022;5.534;2023-04-03T17:07:23;9.80;49.00
65046;DHT22;54657;52.022;5.534;2023-04-03T17:09:49;9.90;49.00
65046;DHT22;54657;52.022;5.534;2023-04-03T17:12:15;9.80;48.20
65046;DHT22;54657;52.022;5.534;2023-04-03T17:14:41;9.70;48.20
65046;DHT22;54657;52.022;5.534;2023-04-03T17:17:07;9.70;48.70
65046;DHT22;54657;52.022;5.534;2023-04-03T17:19:34;9.60;48.80
65046;DHT22;54657;52.022;5.534;2023-04-03T17:22:00;9.60;49.10
65046;DHT22;54657;52.022;5.534;2023-04-03T17:24:26;9.60;49.70
65046;DHT22;54657;52.022;5.534;2023-04-03T17:26:52;9.50;48.90
65046;DHT22;54657;52.022;5.534;2023-04-03T17:29:17;9.50;49.30
65046;DHT22;54657;52.022;5.534;2023-04-03T17:31:43;9.50;49.40
65046;DHT22;54657;52.022;5.534;2023-04-03T17:34:09;9.40;48.80
65046;DHT22;54657;52.022;5.534;2023-04-03T17:36:37;9.40;48.80
65046;DHT22;54657;52.022;5.534;2023-04-03T17:39:06;9.30;49.00
65046;DHT22;54657;52.022;5.534;2023-04-03T17:41:33;9.30;49.20
65046;DHT22;54657;52.022;5.534;2023-04-03T17:43:58;9.40;49.40
65046;DHT22;54657;52.022;5.534;2023-04-03T17:46:25;9.40;49.80
65046;DHT22;54657;52.022;5.534;2023-04-03T17:48:51;9.40;50.10
65046;DHT22;54657;52.022;5.534;2023-04-03T17:51:22;9.40;50.00
65046;DHT22;54657;52.022;5.534;2023-04-03T17:53:48;9.30;49.90
65046;DHT22;54657;52.022;5.534;2023-04-03T17:56:20;9.30;49.90
65046;DHT22;54657;52.022;5.534;2023-04-03T17:58:48;9.30;49.90